createdAt,value
2022-11-23T00:02:14.270Z,4.10
2022-11-23T00:04:40.815Z,4.04
2022-11-23T00:07:07.395Z,3.83
2022-11-23T00:09:46.427Z,4.09
2022-11-23T00:12:13.086Z,3.90
2022-11-23T00:14:58.919Z,3.77
2022-11-23T00:17:25.462Z,3.59
2022-11-23T00:19:52.087Z,3.91
2022-11-23T00:22:18.655Z,3.79
2022-11-23T00:24:57.412Z,3.94
2022-11-23T00:27:24.007Z,3.95
2022-11-23T00:29:50.570Z,3.90
2022-11-23T00:32:17.126Z,3.74
2022-11-23T00:35:14.771Z,4.13
2022-11-23T00:38:01.460Z,4.36
2022-11-23T00:40:28.035Z,3.95
2022-11-23T00:42:54.564Z,4.00
2022-11-23T00:45:21.130Z,4.40
2022-11-23T00:47:47.672Z,4.37
2022-11-23T00:50:14.253Z,4.09
2022-11-23T00:52:40.788Z,4.31
2022-11-23T00:55:07.923Z,4.03
2022-11-23T00:57:34.740Z,4.44
2022-11-23T01:00:01.428Z,3.95
2022-11-23T01:02:28.008Z,4.40
2022-11-23T01:04:54.615Z,4.14
2022-11-23T01:07:36.401Z,3.96
2022-11-23T01:10:05.788Z,4.14
2022-11-23T01:12:32.328Z,3.95
2022-11-23T01:14:58.910Z,4.12
2022-11-23T01:17:25.476Z,3.93
2022-11-23T01:20:23.011Z,3.71
2022-11-23T01:23:09.014Z,4.13
2022-11-23T01:25:38.958Z,4.08
2022-11-23T01:28:05.849Z,4.08
2022-11-23T01:30:33.060Z,3.98
2022-11-23T01:32:59.822Z,4.07
2022-11-23T01:35:26.522Z,3.98
2022-11-23T01:38:08.784Z,3.88
2022-11-23T01:40:42.027Z,4.11
2022-11-23T01:43:15.207Z,3.91
2022-11-23T01:45:43.852Z,4.17
2022-11-23T01:48:52.959Z,4.15
2022-11-23T01:51:43.765Z,3.98
2022-11-23T01:54:17.008Z,4.12
2022-11-23T01:56:48.439Z,4.19
2022-11-23T01:59:19.253Z,4.25
2022-11-23T02:01:46.189Z,3.99
2022-11-23T02:04:19.411Z,4.02
2022-11-23T02:09:22.780Z,4.13
2022-11-23T02:11:49.461Z,3.92
2022-11-23T02:14:20.521Z,3.96
2022-11-23T02:21:05.702Z,3.81
2022-11-23T02:37:42.359Z,4.24
2022-11-23T02:40:31.624Z,3.79
2022-11-23T02:42:59.007Z,3.90
2022-11-23T02:45:44.359Z,3.89
2022-11-23T02:49:07.743Z,3.87
2022-11-23T02:51:56.618Z,3.84
2022-11-23T02:54:23.227Z,3.68
2022-11-23T02:56:49.951Z,3.88
2022-11-23T02:59:16.883Z,4.48
2022-11-23T03:01:43.475Z,4.14
2022-11-23T03:04:12.918Z,3.98
2022-11-23T03:07:01.150Z,3.78
2022-11-23T03:09:29.726Z,3.67
2022-11-23T03:11:56.474Z,3.96
2022-11-23T03:14:24.108Z,3.74
2022-11-23T03:17:14.647Z,3.76
2022-11-23T03:20:26.505Z,3.91
2022-11-23T03:22:53.674Z,3.83
2022-11-23T03:25:21.975Z,4.11
2022-11-23T03:27:48.825Z,4.03
2022-11-23T03:30:15.737Z,3.94
2022-11-23T03:32:42.285Z,3.99
2022-11-23T03:35:09.158Z,3.68
2022-11-23T03:37:35.791Z,3.73
2022-11-23T03:40:03.443Z,3.55
2022-11-23T03:42:29.985Z,3.54
2022-11-23T03:44:56.528Z,3.60
2022-11-23T03:47:23.085Z,3.56
2022-11-23T03:52:30.345Z,3.49
2022-11-23T03:54:56.887Z,3.61
2022-11-23T03:57:23.415Z,3.56
2022-11-23T03:59:49.945Z,3.57
2022-11-23T04:02:16.519Z,3.67
2022-11-23T04:04:43.058Z,3.52
2022-11-23T04:08:13.259Z,4.08
2022-11-23T04:10:53.533Z,3.90
2022-11-23T04:13:20.051Z,4.04
2022-11-23T04:15:46.771Z,4.11
2022-11-23T04:18:13.325Z,3.73
2022-11-23T04:20:58.637Z,4.02
2022-11-23T04:23:25.238Z,3.91
2022-11-23T04:25:51.827Z,3.37
2022-11-23T04:28:18.400Z,3.78
2022-11-23T04:30:44.944Z,3.59
2022-11-23T04:33:11.472Z,3.72
2022-11-23T04:35:56.517Z,3.85
2022-11-23T04:38:23.059Z,4.04
2022-11-23T04:40:49.708Z,3.76
2022-11-23T04:43:16.294Z,3.67
2022-11-23T04:46:24.415Z,3.65
2022-11-23T04:49:28.147Z,3.59
2022-11-23T04:52:04.547Z,3.83
2022-11-23T04:54:31.150Z,4.11
2022-11-23T04:56:57.686Z,3.73
2022-11-23T04:59:25.121Z,3.44
2022-11-23T05:01:54.597Z,3.39
2022-11-23T05:04:21.150Z,3.64
2022-11-23T05:06:47.670Z,3.45
2022-11-23T05:09:14.346Z,3.57
2022-11-23T05:11:41.452Z,3.59
2022-11-23T05:14:28.425Z,3.56
2022-11-23T05:16:55.170Z,3.68
2022-11-23T05:19:21.726Z,3.27
2022-11-23T05:21:48.266Z,3.55
2022-11-23T05:24:14.821Z,3.50
2022-11-23T05:26:41.323Z,3.55
2022-11-23T05:29:07.874Z,3.71
2022-11-23T05:31:34.527Z,3.32
2022-11-23T05:34:01.107Z,3.46
2022-11-23T05:36:30.540Z,3.66
2022-11-23T05:38:57.123Z,3.49
2022-11-23T05:41:23.686Z,3.59
2022-11-23T05:43:50.214Z,3.82
2022-11-23T05:46:16.777Z,3.82
2022-11-23T05:49:12.481Z,3.86
2022-11-23T05:51:39.002Z,3.80
2022-11-23T05:54:07.938Z,3.78
2022-11-23T05:56:41.583Z,3.77
2022-11-23T05:59:08.451Z,3.72
2022-11-23T06:02:16.731Z,3.83
2022-11-23T06:05:02.248Z,3.85
2022-11-23T06:07:31.701Z,4.04
2022-11-23T06:10:00.918Z,3.91
2022-11-23T06:12:28.437Z,4.12
2022-11-23T06:14:55.360Z,4.00
2022-11-23T06:17:22.264Z,3.96
2022-11-23T06:19:48.841Z,4.14
2022-11-23T06:22:15.773Z,4.17
2022-11-23T06:24:43.303Z,3.99
2022-11-23T06:27:16.631Z,4.28
2022-11-23T06:29:46.738Z,3.89
2022-11-23T06:32:13.745Z,4.11
2022-11-23T06:34:40.346Z,3.85
2022-11-23T06:37:06.882Z,3.77
2022-11-23T06:39:33.762Z,4.04
2022-11-23T06:42:23.430Z,4.47
2022-11-23T06:44:47.358Z,4.38
2022-11-23T06:47:16.898Z,3.80
2022-11-23T06:49:44.935Z,3.89
2022-11-23T06:52:11.529Z,4.19
2022-11-23T06:54:38.072Z,4.05
2022-11-23T06:57:07.919Z,4.00
2022-11-23T06:59:34.778Z,4.00
2022-11-23T07:02:01.511Z,4.21
2022-11-23T07:07:03.560Z,4.15
2022-11-23T07:09:30.503Z,4.07
2022-11-23T07:11:57.327Z,4.01
2022-11-23T07:14:23.879Z,4.53
2022-11-23T07:20:59.565Z,4.45
2022-11-23T07:23:26.642Z,4.10
2022-11-23T07:25:53.516Z,4.13
2022-11-23T07:28:20.298Z,4.40
2022-11-23T07:30:49.539Z,4.17
2022-11-23T07:33:16.089Z,4.62
2022-11-23T07:36:02.764Z,4.85
2022-11-23T07:38:30.216Z,5.14
2022-11-23T07:40:58.938Z,4.57
2022-11-23T07:43:26.062Z,4.22
2022-11-23T07:46:51.679Z,4.40
2022-11-23T07:49:33.677Z,4.22
2022-11-23T07:52:00.464Z,4.34
2022-11-23T07:54:27.024Z,4.30
2022-11-23T07:59:29.568Z,4.09
2022-11-23T08:01:58.574Z,4.44
2022-11-23T08:04:26.773Z,4.05
2022-11-23T08:06:55.215Z,4.03
2022-11-23T08:09:21.885Z,4.35
2022-11-23T08:11:48.589Z,4.47
2022-11-23T08:14:15.317Z,4.28
2022-11-23T08:16:41.854Z,4.77
2022-11-23T08:19:09.150Z,4.32
2022-11-23T08:21:35.738Z,4.22
2022-11-23T08:24:02.343Z,4.28
2022-11-23T08:26:28.874Z,4.39
2022-11-23T08:28:57.235Z,4.84
2022-11-23T08:31:23.776Z,4.63
2022-11-23T08:33:50.344Z,4.88
2022-11-23T08:36:16.924Z,4.76
2022-11-23T08:38:43.497Z,4.85
2022-11-23T08:41:10.137Z,5.33
2022-11-23T08:43:36.751Z,5.21
2022-11-23T08:46:09.309Z,5.30
2022-11-23T08:51:35.599Z,4.94
2022-11-23T08:54:02.203Z,4.82
2022-11-23T08:56:28.750Z,4.90
2022-11-23T08:58:55.510Z,5.01
2022-11-23T09:01:22.128Z,4.71
2022-11-23T09:04:36.156Z,4.83
2022-11-23T09:07:46.428Z,5.18
2022-11-23T09:10:31.702Z,5.05
2022-11-23T09:12:59.440Z,5.16
2022-11-23T09:15:25.978Z,5.09
2022-11-23T09:17:55.552Z,4.85
2022-11-23T09:20:22.283Z,4.74
2022-11-23T09:22:53.880Z,4.85
2022-11-23T09:33:39.826Z,5.18
2022-11-23T09:36:06.720Z,5.06
2022-11-23T09:38:55.017Z,4.94
2022-11-23T09:41:41.299Z,4.89
2022-11-23T09:44:42.340Z,4.49
2022-11-23T09:47:33.480Z,4.47
2022-11-23T09:50:06.803Z,4.36
2022-11-23T09:52:39.882Z,4.52
2022-11-23T09:55:18.268Z,4.37
2022-11-23T09:57:47.434Z,4.28
2022-11-23T10:00:23.841Z,4.43
2022-11-23T10:02:50.480Z,4.14
2022-11-23T10:05:21.394Z,4.09
2022-11-23T10:08:04.516Z,4.28
2022-11-23T10:10:40.123Z,4.39
2022-11-23T10:13:20.763Z,4.25
2022-11-23T10:16:10.313Z,4.54
2022-11-23T10:18:50.672Z,4.69
2022-11-23T10:21:30.295Z,4.44
2022-11-23T10:24:03.847Z,4.35
2022-11-23T10:26:38.870Z,4.41
2022-11-23T10:29:16.758Z,4.47
2022-11-23T10:31:52.715Z,4.44
2022-11-23T10:34:46.523Z,4.56
2022-11-23T10:37:15.570Z,4.58
2022-11-23T10:40:01.010Z,4.89
2022-11-23T10:42:36.475Z,4.55
2022-11-23T10:45:04.599Z,4.49
2022-11-23T10:47:41.399Z,4.69
2022-11-23T10:54:05.405Z,4.59
2022-11-23T10:56:34.065Z,4.61
2022-11-23T10:59:01.017Z,4.99
2022-11-23T11:01:30.230Z,4.92
2022-11-23T11:04:03.600Z,4.85
2022-11-23T11:06:34.609Z,4.71
2022-11-23T11:09:08.391Z,4.60
2022-11-23T11:11:45.553Z,4.56
2022-11-23T11:14:23.768Z,4.41
2022-11-23T11:16:58.417Z,4.48
2022-11-23T11:19:32.175Z,4.67
2022-11-23T11:22:01.056Z,4.73
2022-11-23T11:24:37.943Z,4.80
2022-11-23T11:27:21.194Z,4.62
2022-11-23T11:29:48.800Z,4.61
2022-11-23T11:32:25.143Z,5.06
2022-11-23T11:35:08.189Z,5.22
2022-11-23T11:37:39.532Z,5.59
2022-11-23T11:40:05.996Z,5.70
2022-11-23T11:42:40.727Z,5.56
2022-11-23T11:45:16.560Z,5.45
2022-11-23T11:47:53.432Z,5.78
2022-11-23T11:50:31.895Z,5.53
2022-11-23T11:53:05.586Z,5.21
2022-11-23T11:55:50.803Z,5.21
2022-11-23T11:58:17.943Z,5.29
2022-11-23T12:03:44.471Z,5.61
2022-11-23T12:06:26.904Z,4.86
2022-11-23T12:09:10.093Z,5.40
2022-11-23T12:11:37.345Z,5.74
2022-11-23T12:14:05.822Z,5.23
2022-11-23T12:17:10.515Z,5.50
2022-11-23T12:19:51.393Z,6.03
2022-11-23T12:22:52.836Z,6.44
2022-11-23T12:25:34.529Z,6.25
2022-11-23T12:28:16.525Z,6.21
2022-11-23T12:30:53.687Z,6.15
2022-11-23T12:36:12.320Z,5.91
2022-11-23T12:38:55.247Z,6.08
2022-11-23T12:41:44.937Z,5.92
2022-11-23T12:46:55.070Z,6.50
2022-11-23T12:49:44.246Z,6.07
2022-11-23T12:52:13.459Z,5.84
2022-11-23T12:55:19.810Z,6.00
2022-11-23T12:58:15.675Z,5.94
2022-11-23T13:12:55.270Z,6.11
2022-11-23T13:16:03.702Z,6.25
2022-11-23T13:19:40.132Z,6.01
2022-11-23T13:23:06.541Z,5.75
2022-11-23T13:28:30.592Z,6.00
2022-11-23T13:31:23.829Z,5.61
2022-11-23T13:33:53.277Z,5.73
2022-11-23T13:37:10.575Z,5.84
2022-11-23T13:39:43.925Z,5.77
2022-11-23T13:42:11.462Z,5.71
2022-11-23T13:44:38.319Z,5.94
2022-11-23T13:50:09.073Z,6.22
2022-11-23T13:52:36.888Z,6.50
2022-11-23T13:55:10.529Z,6.14
2022-11-23T13:57:39.217Z,6.62
2022-11-23T14:00:43.201Z,5.99
2022-11-23T14:03:47.501Z,6.19
2022-11-23T14:06:35.477Z,6.34
2022-11-23T14:09:18.084Z,6.16
2022-11-23T14:12:06.795Z,6.66
2022-11-23T14:14:54.006Z,6.11
2022-11-23T14:17:39.023Z,6.40
2022-11-23T14:20:50.500Z,6.42
2022-11-23T14:23:44.971Z,6.33
2022-11-23T14:26:27.397Z,6.19
2022-11-23T14:28:56.999Z,6.24
2022-11-23T14:31:33.007Z,6.19
2022-11-23T14:34:11.054Z,6.01
2022-11-23T14:36:54.118Z,6.30
2022-11-23T14:39:23.683Z,6.25
2022-11-23T14:41:54.896Z,6.33
2022-11-23T14:44:33.050Z,6.25
2022-11-23T14:47:09.266Z,6.44
2022-11-23T14:49:37.098Z,6.65
2022-11-23T14:52:05.762Z,6.61
2022-11-23T14:54:32.935Z,6.45
2022-11-23T14:57:03.930Z,6.30
2022-11-23T14:59:37.724Z,6.49
2022-11-23T15:02:22.103Z,6.35
2022-11-23T15:05:09.117Z,6.16
2022-11-23T15:07:44.701Z,6.01
2022-11-23T15:10:40.085Z,5.90
2022-11-23T15:13:21.169Z,6.20
2022-11-23T15:15:52.188Z,6.42
2022-11-23T15:18:35.463Z,6.39
2022-11-23T15:21:03.561Z,6.34
2022-11-23T15:23:35.806Z,6.34
2022-11-23T15:26:28.614Z,6.32
2022-11-23T15:29:01.643Z,6.58
2022-11-23T15:31:36.632Z,6.76
2022-11-23T15:34:17.066Z,6.99
2022-11-23T15:39:22.061Z,6.76
2022-11-23T15:41:49.630Z,7.00
2022-11-23T15:44:25.331Z,7.16
2022-11-23T15:46:58.986Z,7.07
2022-11-23T15:49:25.898Z,7.21
2022-11-23T15:51:59.548Z,6.81
2022-11-23T15:54:46.631Z,6.98
2022-11-23T15:57:18.957Z,7.23
2022-11-23T15:59:55.947Z,7.31
2022-11-23T16:02:31.122Z,7.35
2022-11-23T16:46:26.935Z,7.49
2022-11-23T16:49:10.574Z,7.27
2022-11-23T16:51:37.115Z,7.13
2022-11-23T16:54:24.556Z,7.38
2022-11-23T16:56:51.945Z,7.46
2022-11-23T16:59:43.423Z,7.51
2022-11-23T17:07:33.978Z,7.56
2022-11-23T17:36:47.540Z,7.50
2022-11-23T17:50:54.895Z,7.60
2022-11-23T17:53:25.353Z,7.62
2022-11-23T17:55:54.566Z,7.73
2022-11-23T18:03:37.929Z,7.82
2022-11-23T18:08:40.195Z,7.63
2022-11-23T18:11:07.472Z,7.70
2022-11-23T18:13:53.450Z,7.60
2022-11-23T18:18:55.930Z,7.65
2022-11-23T18:21:48.201Z,7.62
2022-11-23T18:32:13.925Z,7.95
2022-11-23T18:34:43.558Z,7.81
2022-11-23T18:37:10.712Z,7.88
2022-11-23T18:39:38.310Z,7.85
2022-11-23T18:42:11.788Z,7.71
2022-11-23T18:44:42.416Z,7.73
2022-11-23T18:47:12.922Z,7.71
2022-11-23T18:49:39.496Z,7.97
2022-11-23T19:14:39.711Z,7.93
2022-11-23T19:17:14.242Z,7.93
2022-11-23T19:19:41.072Z,8.04
2022-11-23T19:22:14.793Z,7.97
2022-11-23T19:24:44.561Z,8.07
2022-11-23T19:27:20.180Z,8.12
2022-11-23T19:29:46.792Z,8.18
2022-11-23T19:32:13.393Z,8.13
2022-11-23T19:34:40.166Z,8.17
2022-11-23T19:37:07.641Z,8.16
2022-11-23T19:39:34.506Z,8.20
2022-11-23T19:42:01.788Z,8.19
2022-11-23T19:44:28.351Z,8.16
2022-11-23T19:46:54.915Z,8.19
2022-11-23T19:49:24.320Z,8.17
2022-11-23T19:51:53.485Z,8.24
2022-11-23T19:54:22.376Z,8.32
2022-11-23T19:56:52.333Z,8.39
2022-11-23T19:59:18.921Z,8.38
2022-11-23T20:01:45.542Z,8.18
2022-11-23T20:04:12.123Z,8.20
2022-11-23T20:06:42.417Z,8.21
2022-11-23T20:09:21.059Z,8.09
2022-11-23T20:14:32.104Z,8.09
2022-11-23T20:16:59.520Z,8.07
2022-11-23T20:19:26.249Z,8.14
2022-11-23T20:22:30.594Z,8.02
2022-11-23T20:28:54.662Z,8.05
2022-11-23T20:31:22.259Z,7.97
2022-11-23T20:33:55.207Z,8.13
2022-11-23T20:36:27.376Z,8.11
2022-11-23T20:39:16.215Z,7.95
2022-11-23T22:13:36.836Z,7.24
2022-11-23T22:16:14.509Z,7.29
2022-11-23T22:18:43.537Z,7.38
2022-11-23T22:21:32.444Z,7.39
2022-11-23T22:23:59.633Z,7.44
2022-11-23T22:26:41.302Z,7.58
2022-11-23T22:29:17.338Z,7.45
2022-11-23T22:39:50.146Z,7.35
2022-11-23T22:42:17.406Z,7.52
2022-11-23T22:44:44.021Z,7.46
2022-11-23T22:47:10.915Z,7.31
2022-11-23T22:49:38.200Z,7.43
2022-11-23T22:52:29.882Z,7.47
2022-11-23T22:54:56.442Z,7.57
2022-11-23T22:57:22.986Z,7.74
2022-11-23T22:59:49.521Z,7.68
2022-11-23T23:06:30.946Z,7.46
2022-11-23T23:57:39.981Z,8.29
